USCGC Tern — NEOT — position and weather

sailwx.info

Track history (hours):
 
Tides and Currents Weather Stations Pressure Air Temp Water Temp Dewpoint Dewpoint Depression Visibility Wind Speed Wind Dir Waves Ship Positions

USCGC Tern

Last reported at 2016-Oct-21 16:33 UTC. Time now 2016-Dec-10 18:36 UTC.
Position N 37°50' W 122°22'.
Warning: this ship's position is 50 days out of date.

Length 26 m; draft 1.7 m.

Type: SAR. MMSI: 366999711.

Date/timePositionNaut miles runAvg speedWind from/ knotsBaromVisibWave heightAir tempDewpointWater temp
2016-Oct-21 16:33N 37°50' W 122°22'5 0.1
2016-Oct-19 20:33N 37°45' W 122°22'4 3.6
2016-Oct-19 19:33N 37°42' W 122°18'11 3.8
2016-Oct-19 16:33N 37°48' W 122°31'3 3.2
2016-Oct-19 15:33N 37°51' W 122°28'0 0.0
2016-Oct-19 14:30N 37°51' W 122°28'0 0.0
2016-Oct-19 12:33N 37°51' W 122°28'0 0.0
2016-Oct-19 01:33N 37°51' W 122°28'8 2.0
2016-Oct-18 21:32N 37°46' W 122°36'11 3.6
2016-Oct-18 18:33N 37°52' W 122°25'3 0.6
2016-Oct-18 13:26N 37°54' W 122°28'0 0.0
2016-Oct-18 10:32N 37°54' W 122°28'0 0.0
2016-Oct-18 09:31N 37°54' W 122°28'0 0.0
2016-Oct-18 07:31N 37°54' W 122°28'0 0.0
2016-Oct-18 06:28N 37°54' W 122°28'0 0.0
2016-Oct-18 02:29N 37°54' W 122°28'0 0.0
2016-Oct-18 01:32N 37°54' W 122°28'1 0.2
2016-Oct-17 19:33N 37°55' W 122°27'8 2.5
2016-Oct-17 16:32N 37°49' W 122°22'0 0.0
2016-Oct-17 15:29N 37°49' W 122°22'  
Track history (hours):
 
Tides and Currents Weather Stations Pressure Air Temp Water Temp Dewpoint Dewpoint Depression Visibility Wind Speed Wind Dir Waves Ship Positions

USCGC Tern

Last reported at 2016-Oct-21 16:33 UTC. Time now 2016-Dec-10 18:36 UTC.
Position N 37°50' W 122°22'.
Warning: this ship's position is 50 days out of date.

Length 26 m; draft 1.7 m.

Type: SAR. MMSI: 366999711.

Date/timePositionNaut miles runAvg speedWind from/ knotsBaromVisibWave heightAir tempDewpointWater temp
2016-Oct-21 16:33N 37°50' W 122°22'5 0.1
2016-Oct-19 20:33N 37°45' W 122°22'4 3.6
2016-Oct-19 19:33N 37°42' W 122°18'11 3.8
2016-Oct-19 16:33N 37°48' W 122°31'3 3.2
2016-Oct-19 15:33N 37°51' W 122°28'0 0.0
2016-Oct-19 14:30N 37°51' W 122°28'0 0.0
2016-Oct-19 12:33N 37°51' W 122°28'0 0.0
2016-Oct-19 01:33N 37°51' W 122°28'8 2.0
2016-Oct-18 21:32N 37°46' W 122°36'11 3.6
2016-Oct-18 18:33N 37°52' W 122°25'3 0.6
2016-Oct-18 13:26N 37°54' W 122°28'0 0.0
2016-Oct-18 10:32N 37°54' W 122°28'0 0.0
2016-Oct-18 09:31N 37°54' W 122°28'0 0.0
2016-Oct-18 07:31N 37°54' W 122°28'0 0.0
2016-Oct-18 06:28N 37°54' W 122°28'0 0.0
2016-Oct-18 02:29N 37°54' W 122°28'0 0.0
2016-Oct-18 01:32N 37°54' W 122°28'1 0.2
2016-Oct-17 19:33N 37°55' W 122°27'8 2.5
2016-Oct-17 16:32N 37°49' W 122°22'0 0.0
2016-Oct-17 15:29N 37°49' W 122°22'  

Dump ship's entire track history